createdAt,value
2018-08-22T00:00:16.084Z,17.70
2018-08-22T00:03:26.827Z,17.70
2018-08-22T00:06:37.554Z,17.80
2018-08-22T00:09:47.469Z,17.80
2018-08-22T00:12:57.423Z,17.70
2018-08-22T00:16:07.931Z,17.70
2018-08-22T00:19:18.060Z,17.60
2018-08-22T00:22:28.963Z,17.50
2018-08-22T00:25:39.118Z,17.40
2018-08-22T00:28:49.473Z,17.30
2018-08-22T00:31:59.677Z,17.20
2018-08-22T00:35:09.776Z,17.30
2018-08-22T00:38:20.751Z,17.20
2018-08-22T00:41:31.500Z,17.20
2018-08-22T00:44:41.433Z,17.20
2018-08-22T00:47:51.746Z,17.20
2018-08-22T00:51:02.100Z,17.10
2018-08-22T00:54:12.290Z,16.90
2018-08-22T00:57:23.015Z,17.10
2018-08-22T01:00:33.577Z,17.20
2018-08-22T01:03:43.372Z,17.30
2018-08-22T01:06:53.448Z,17.30
2018-08-22T01:10:03.740Z,17.20
2018-08-22T01:13:14.018Z,17.20
2018-08-22T01:16:23.894Z,17.20
2018-08-22T01:19:34.415Z,17.10
2018-08-22T01:22:44.807Z,17.10
2018-08-22T01:25:55.181Z,17.10
2018-08-22T01:29:05.293Z,17.20
2018-08-22T01:32:15.652Z,17.20
2018-08-22T01:35:25.502Z,17.30
2018-08-22T01:38:35.695Z,17.30
2018-08-22T01:41:46.031Z,17.30
2018-08-22T01:44:55.912Z,17.10
2018-08-22T01:48:05.981Z,17.10
2018-08-22T01:51:16.270Z,17.10
2018-08-22T01:54:26.368Z,17.20
2018-08-22T01:57:36.992Z,17.20
2018-08-22T02:00:47.535Z,17.20
2018-08-22T02:03:57.706Z,17.20
2018-08-22T02:07:07.781Z,17.20
2018-08-22T02:10:17.855Z,17.10
2018-08-22T02:13:28.712Z,17.00
2018-08-22T02:16:39.759Z,16.90
2018-08-22T02:19:50.147Z,16.80
2018-08-22T02:23:00.846Z,16.80
2018-08-22T02:26:11.512Z,16.80
2018-08-22T02:29:22.138Z,16.80
2018-08-22T02:32:32.373Z,16.80
2018-08-22T02:35:42.475Z,16.70
2018-08-22T02:38:53.032Z,16.60
2018-08-22T02:42:03.529Z,16.40
2018-08-22T02:45:13.588Z,16.40
2018-08-22T02:48:23.796Z,16.40
2018-08-22T02:51:33.879Z,16.40
2018-08-22T02:54:44.267Z,16.40
2018-08-22T02:57:55.438Z,16.20
2018-08-22T03:01:06.279Z,16.30
2018-08-22T03:04:16.352Z,16.20
2018-08-22T03:07:26.441Z,16.30
2018-08-22T03:10:37.002Z,16.20
2018-08-22T03:13:47.387Z,16.30
2018-08-22T03:17:00.373Z,16.20
2018-08-22T03:20:10.945Z,16.30
2018-08-22T03:23:21.300Z,16.20
2018-08-22T03:26:31.394Z,16.30
2018-08-22T03:29:41.373Z,16.20
2018-08-22T03:32:52.138Z,16.30
2018-08-22T03:36:02.014Z,16.30
2018-08-22T03:39:12.231Z,16.30
2018-08-22T03:42:22.799Z,16.20
2018-08-22T03:45:32.978Z,16.20
2018-08-22T03:48:43.719Z,16.20
2018-08-22T03:51:53.721Z,16.20
2018-08-22T03:55:03.953Z,16.10
2018-08-22T03:58:14.932Z,16.20
2018-08-22T04:01:25.725Z,16.10
2018-08-22T04:04:36.560Z,16.20
2018-08-22T04:07:46.850Z,16.10
2018-08-22T04:10:57.669Z,16.10
2018-08-22T04:14:08.332Z,16.00
2018-08-22T04:17:18.317Z,16.10
2018-08-22T04:20:28.399Z,16.10
2018-08-22T04:23:38.364Z,16.10
2018-08-22T04:26:48.589Z,16.00
2018-08-22T04:29:58.527Z,16.00
2018-08-22T04:33:08.741Z,16.00
2018-08-22T04:36:19.419Z,16.10
2018-08-22T04:39:29.815Z,16.10
2018-08-22T04:42:40.439Z,16.00
2018-08-22T04:45:50.456Z,16.00
2018-08-22T04:49:00.459Z,16.00
2018-08-22T04:52:10.511Z,16.10
2018-08-22T04:55:20.396Z,16.10
2018-08-22T04:58:31.254Z,16.00
2018-08-22T05:01:41.705Z,16.00
2018-08-22T05:04:52.480Z,16.00
2018-08-22T05:08:02.593Z,16.10
2018-08-22T05:11:12.734Z,16.00
2018-08-22T05:14:22.920Z,16.00
2018-08-22T05:17:32.986Z,16.00
2018-08-22T05:20:44.039Z,16.00
2018-08-22T05:23:54.327Z,16.10
2018-08-22T05:27:04.886Z,16.00
2018-08-22T05:30:15.649Z,16.10
2018-08-22T05:33:26.044Z,16.20
2018-08-22T05:36:35.917Z,16.30
2018-08-22T05:39:46.240Z,16.30
2018-08-22T05:42:56.393Z,16.30
2018-08-22T05:46:07.114Z,16.50
2018-08-22T05:49:18.019Z,16.60
2018-08-22T05:52:28.081Z,16.70
2018-08-22T05:55:38.125Z,16.70
2018-08-22T05:58:48.497Z,16.90
2018-08-22T06:01:58.416Z,17.00
2018-08-22T06:05:08.678Z,17.10
2018-08-22T06:08:18.761Z,17.30
2018-08-22T06:11:29.641Z,17.40
2018-08-22T06:14:39.593Z,17.50
2018-08-22T06:17:50.980Z,17.70
2018-08-22T06:21:01.025Z,17.80
2018-08-22T06:24:11.082Z,17.90
2018-08-22T06:27:21.137Z,18.00
2018-08-22T06:30:31.245Z,18.10
2018-08-22T06:33:41.101Z,18.30
2018-08-22T06:36:50.981Z,18.40
2018-08-22T06:40:01.104Z,18.60
2018-08-22T06:43:11.599Z,18.60
2018-08-22T06:46:21.471Z,18.80
2018-08-22T06:49:31.548Z,18.90
2018-08-22T06:52:41.622Z,19.00
2018-08-22T06:55:52.214Z,19.20
2018-08-22T06:59:03.036Z,19.40
2018-08-22T07:02:13.317Z,19.40
2018-08-22T07:05:23.324Z,19.60
2018-08-22T07:08:33.533Z,19.70
2018-08-22T07:11:43.438Z,19.90
2018-08-22T07:14:53.390Z,20.00
2018-08-22T07:18:04.308Z,20.10
2018-08-22T07:21:15.046Z,20.30
2018-08-22T07:24:25.918Z,20.30
2018-08-22T07:27:35.863Z,20.50
2018-08-22T07:30:46.023Z,20.50
2018-08-22T07:33:56.563Z,20.70
2018-08-22T07:37:06.664Z,20.80
2018-08-22T07:40:16.800Z,21.00
2018-08-22T07:43:27.593Z,21.20
2018-08-22T07:46:37.692Z,21.20
2018-08-22T07:49:53.761Z,21.30
2018-08-22T07:53:05.534Z,21.40
2018-08-22T07:56:16.218Z,21.60
2018-08-22T07:59:26.536Z,21.60
2018-08-22T08:02:37.137Z,21.80
2018-08-22T08:05:48.219Z,22.00
2018-08-22T08:08:58.750Z,22.10
2018-08-22T08:12:09.111Z,22.20
2018-08-22T08:15:19.403Z,22.40
2018-08-22T08:18:30.024Z,22.50
2018-08-22T08:21:40.757Z,22.60
2018-08-22T08:24:50.333Z,22.70
2018-08-22T08:28:00.298Z,22.90
2018-08-22T08:31:10.304Z,23.00
2018-08-22T08:34:20.344Z,23.10
2018-08-22T08:37:30.352Z,23.20
2018-08-22T08:40:40.707Z,23.30
2018-08-22T08:43:50.688Z,23.40
2018-08-22T08:47:00.714Z,23.60
2018-08-22T08:50:10.898Z,23.70
2018-08-22T08:53:21.787Z,23.80
2018-08-22T08:56:32.268Z,23.90
2018-08-22T08:59:43.282Z,23.90
2018-08-22T09:02:53.804Z,24.20
2018-08-22T09:06:03.946Z,24.30
2018-08-22T09:09:13.885Z,24.50
2018-08-22T09:12:24.200Z,24.70
2018-08-22T09:15:34.237Z,24.80
2018-08-22T09:18:45.057Z,24.90
2018-08-22T09:21:55.623Z,25.00
2018-08-22T09:25:05.764Z,25.20
2018-08-22T09:28:16.139Z,25.10
2018-08-22T09:31:26.053Z,25.30
2018-08-22T09:34:35.926Z,25.30
2018-08-22T09:37:45.808Z,25.40
2018-08-22T09:40:55.637Z,25.70
2018-08-22T09:44:06.208Z,25.70
2018-08-22T09:47:16.417Z,25.80
2018-08-22T09:50:26.425Z,25.60
2018-08-22T09:53:36.906Z,25.80
2018-08-22T09:56:46.894Z,25.80
2018-08-22T09:59:57.119Z,26.00
2018-08-22T10:03:07.517Z,26.20
2018-08-22T10:06:38.182Z,26.40
2018-08-22T10:09:47.766Z,26.20
2018-08-22T10:12:58.415Z,26.20
2018-08-22T10:16:08.813Z,26.40
2018-08-22T10:19:19.034Z,26.50
2018-08-22T10:22:29.016Z,26.60
2018-08-22T10:25:38.857Z,26.80
2018-08-22T10:28:49.253Z,26.80
2018-08-22T10:31:59.009Z,26.90
2018-08-22T10:35:09.117Z,26.60
2018-08-22T10:38:19.719Z,26.90
2018-08-22T10:41:30.194Z,27.20
2018-08-22T10:44:40.015Z,27.20
2018-08-22T10:47:50.168Z,27.30
2018-08-22T10:51:00.423Z,27.30
2018-08-22T10:54:10.282Z,27.30
2018-08-22T10:57:20.792Z,27.40
2018-08-22T11:00:31.391Z,27.40
2018-08-22T11:03:41.094Z,27.50
2018-08-22T11:06:50.952Z,27.60
2018-08-22T11:10:00.891Z,27.80
2018-08-22T11:13:10.953Z,27.70
2018-08-22T11:16:20.802Z,27.70
2018-08-22T11:19:30.993Z,27.70
2018-08-22T11:22:52.599Z,28.00
2018-08-22T11:26:14.689Z,28.00
2018-08-22T11:29:35.780Z,28.20
2018-08-22T11:32:56.863Z,28.20
2018-08-22T11:36:06.425Z,28.30
2018-08-22T11:39:16.162Z,28.30
2018-08-22T11:42:26.111Z,28.20
2018-08-22T11:45:36.052Z,28.10
2018-08-22T11:48:46.142Z,28.40
2018-08-22T11:51:56.914Z,28.20
2018-08-22T11:55:07.751Z,28.40
2018-08-22T11:58:17.495Z,28.40
2018-08-22T12:01:27.516Z,28.70
2018-08-22T12:04:38.334Z,28.70
2018-08-22T12:07:48.014Z,28.70
2018-08-22T12:10:57.976Z,29.00
2018-08-22T12:14:08.426Z,29.20
2018-08-22T12:17:18.423Z,29.10
2018-08-22T12:20:28.767Z,29.10
2018-08-22T12:23:39.128Z,29.10
2018-08-22T12:26:49.167Z,29.10
2018-08-22T12:29:59.181Z,29.20
2018-08-22T12:33:09.743Z,29.00
2018-08-22T12:36:20.009Z,29.30
2018-08-22T12:39:29.905Z,29.20
2018-08-22T12:42:40.524Z,29.40
2018-08-22T12:45:50.573Z,29.60
2018-08-22T12:49:00.623Z,29.40
2018-08-22T12:52:10.368Z,29.40
2018-08-22T12:55:20.370Z,29.50
2018-08-22T12:58:34.201Z,29.50
2018-08-22T13:01:44.761Z,29.50
2018-08-22T13:04:56.273Z,29.50
2018-08-22T13:08:06.860Z,29.50
2018-08-22T13:11:16.814Z,29.50
2018-08-22T13:14:26.542Z,29.50
2018-08-22T13:17:36.710Z,29.70
2018-08-22T13:20:46.640Z,29.90
2018-08-22T13:23:56.930Z,29.90
2018-08-22T13:27:06.783Z,30.00
2018-08-22T13:30:16.845Z,30.00
2018-08-22T13:33:27.163Z,29.90
2018-08-22T13:36:37.130Z,30.10
2018-08-22T13:39:47.085Z,29.80
2018-08-22T13:42:57.112Z,29.90
2018-08-22T13:46:07.230Z,29.80
2018-08-22T13:49:17.208Z,29.80
2018-08-22T13:55:43.275Z,30.00
2018-08-22T13:58:53.756Z,30.20
2018-08-22T14:02:04.482Z,30.10
2018-08-22T14:05:14.517Z,30.10
2018-08-22T14:08:24.930Z,30.20
2018-08-22T14:11:34.651Z,30.40
2018-08-22T14:14:44.445Z,30.40
2018-08-22T14:17:54.223Z,30.40
2018-08-22T14:21:04.410Z,30.40
2018-08-22T14:24:14.352Z,30.50
2018-08-22T14:27:24.148Z,30.70
2018-08-22T14:30:34.087Z,30.80
2018-08-22T14:33:43.896Z,30.70
2018-08-22T14:36:53.914Z,30.30
2018-08-22T14:40:03.803Z,30.50
2018-08-22T14:43:13.675Z,30.50
2018-08-22T14:46:23.717Z,30.60
2018-08-22T14:49:33.692Z,30.60
2018-08-22T14:52:43.830Z,30.60
2018-08-22T14:55:53.638Z,30.60
2018-08-22T14:59:04.075Z,30.60
2018-08-22T15:02:14.275Z,30.40
2018-08-22T15:05:24.089Z,30.50
2018-08-22T15:08:34.395Z,30.60
2018-08-22T15:11:44.547Z,30.50
2018-08-22T15:14:54.484Z,30.40
2018-08-22T15:18:04.879Z,30.50
2018-08-22T15:21:14.455Z,30.20
2018-08-22T15:24:24.504Z,30.20
2018-08-22T15:27:34.395Z,30.20
2018-08-22T15:30:44.544Z,30.20
2018-08-22T15:33:55.038Z,30.20
2018-08-22T15:37:05.114Z,30.20
2018-08-22T15:40:16.747Z,30.10
2018-08-22T15:43:27.218Z,30.20
2018-08-22T15:46:37.240Z,30.20
2018-08-22T15:49:47.329Z,30.00
2018-08-22T15:52:57.724Z,29.90
2018-08-22T15:56:07.921Z,29.90
2018-08-22T15:59:18.639Z,30.00
2018-08-22T16:02:28.505Z,29.90
2018-08-22T16:05:39.026Z,29.70
2018-08-22T16:08:49.635Z,29.70
2018-08-22T16:11:59.878Z,29.60
2018-08-22T16:15:09.727Z,29.50
2018-08-22T16:18:25.964Z,29.50
2018-08-22T16:21:37.797Z,29.20
2018-08-22T16:24:48.410Z,29.10
2018-08-22T16:27:58.405Z,29.20
2018-08-22T16:31:08.333Z,29.00
2018-08-22T16:34:18.636Z,28.90
2018-08-22T16:37:28.375Z,28.80
2018-08-22T16:40:40.245Z,28.90
2018-08-22T16:43:50.632Z,28.70
2018-08-22T16:47:00.761Z,28.70
2018-08-22T16:50:10.729Z,28.60
2018-08-22T16:53:21.296Z,28.50
2018-08-22T16:56:33.030Z,28.40
2018-08-22T16:59:43.438Z,28.40
2018-08-22T17:02:53.699Z,28.40
2018-08-22T17:06:08.921Z,28.30
2018-08-22T17:09:19.319Z,28.30
2018-08-22T17:12:30.962Z,28.20
2018-08-22T17:15:41.213Z,28.10
2018-08-22T17:18:51.319Z,28.10
2018-08-22T17:22:01.158Z,28.00
2018-08-22T17:25:14.193Z,28.00
2018-08-22T17:28:29.521Z,27.90
2018-08-22T17:31:39.616Z,27.80
2018-08-22T17:34:50.204Z,27.70
2018-08-22T17:37:59.764Z,27.60
2018-08-22T17:41:09.874Z,27.60
2018-08-22T17:44:19.920Z,27.50
2018-08-22T17:47:30.144Z,27.30
2018-08-22T17:50:40.145Z,27.20
2018-08-22T17:53:49.747Z,27.10
2018-08-22T17:57:20.172Z,27.00
2018-08-22T18:00:33.655Z,26.80
2018-08-22T18:03:44.131Z,26.70
2018-08-22T18:06:54.237Z,26.60
2018-08-22T18:10:04.105Z,26.50
2018-08-22T18:13:16.253Z,26.40
2018-08-22T18:16:26.996Z,26.30
2018-08-22T18:19:38.607Z,26.20
2018-08-22T18:22:48.665Z,26.10
2018-08-22T18:26:01.023Z,25.90
2018-08-22T18:29:11.534Z,25.90
2018-08-22T18:32:21.904Z,25.70
2018-08-22T18:35:32.299Z,25.60
2018-08-22T18:38:48.095Z,25.60
2018-08-22T18:41:58.244Z,25.40
2018-08-22T18:45:08.280Z,25.20
2018-08-22T18:48:18.200Z,25.20
2018-08-22T18:51:28.684Z,25.10
2018-08-22T18:54:38.666Z,25.10
2018-08-22T18:57:48.611Z,25.00
2018-08-22T19:00:58.693Z,24.90
2018-08-22T19:04:08.857Z,24.80
2018-08-22T19:07:18.895Z,24.80
2018-08-22T19:10:30.849Z,24.70
2018-08-22T19:13:40.623Z,24.60
2018-08-22T19:16:50.760Z,24.60
2018-08-22T19:20:00.833Z,24.40
2018-08-22T19:23:10.620Z,24.20
2018-08-22T19:26:20.519Z,24.10
2018-08-22T19:29:30.093Z,24.20
2018-08-22T19:32:40.965Z,24.10
2018-08-22T19:35:50.755Z,24.00
2018-08-22T19:39:00.597Z,23.90
2018-08-22T19:42:10.601Z,23.80
2018-08-22T19:45:20.545Z,23.60
2018-08-22T19:48:31.180Z,23.50
2018-08-22T19:51:41.053Z,23.40
2018-08-22T19:54:51.015Z,23.30
2018-08-22T19:58:01.275Z,23.20
2018-08-22T20:01:12.056Z,23.20
2018-08-22T20:04:22.953Z,23.00
2018-08-22T20:07:33.145Z,23.10
2018-08-22T20:10:43.017Z,23.00
2018-08-22T20:13:58.446Z,22.90
2018-08-22T20:17:08.597Z,22.90
2018-08-22T20:20:20.185Z,22.70
2018-08-22T20:23:30.851Z,22.70
2018-08-22T20:26:48.618Z,22.60
2018-08-22T20:30:04.077Z,22.50
2018-08-22T20:33:13.736Z,22.50
2018-08-22T20:36:23.974Z,22.30
2018-08-22T20:39:34.762Z,22.30
2018-08-22T20:42:44.852Z,22.30
2018-08-22T20:45:55.493Z,22.30
2018-08-22T20:49:05.947Z,22.10
2018-08-22T20:52:17.054Z,22.10
2018-08-22T20:55:28.088Z,22.00
2018-08-22T20:58:39.808Z,21.90
2018-08-22T21:01:54.821Z,21.80
2018-08-22T21:05:05.484Z,21.70
2018-08-22T21:08:16.234Z,21.60
2018-08-22T21:11:26.391Z,21.50
2018-08-22T21:14:36.706Z,21.40
2018-08-22T21:17:47.482Z,21.30
2018-08-22T21:20:57.820Z,21.20
2018-08-22T21:24:07.708Z,21.20
2018-08-22T21:27:18.626Z,21.10
2018-08-22T21:30:29.351Z,21.00
2018-08-22T21:33:40.207Z,21.00
2018-08-22T21:36:50.375Z,20.90
2018-08-22T21:40:00.879Z,20.90
2018-08-22T21:43:12.816Z,20.90
2018-08-22T21:46:23.455Z,20.60
2018-08-22T21:49:33.278Z,20.60
2018-08-22T21:52:55.087Z,20.60
2018-08-22T21:57:07.792Z,20.60
2018-08-22T22:00:17.699Z,20.60
2018-08-22T22:03:32.266Z,20.60
2018-08-22T22:06:42.714Z,20.60
2018-08-22T22:09:57.582Z,20.50
2018-08-22T22:13:08.632Z,20.40
2018-08-22T22:16:23.489Z,20.30
2018-08-22T22:19:35.861Z,20.40
2018-08-22T22:22:45.770Z,20.40
2018-08-22T22:25:57.337Z,20.40
2018-08-22T22:29:07.937Z,20.40
2018-08-22T22:32:18.246Z,20.30
2018-08-22T22:35:33.608Z,20.40
2018-08-22T22:38:44.262Z,20.40
2018-08-22T22:41:54.775Z,20.30
2018-08-22T22:45:05.899Z,20.30
2018-08-22T22:48:36.877Z,20.20
2018-08-22T22:51:47.306Z,20.20
2018-08-22T22:54:59.147Z,20.20
2018-08-22T22:58:09.201Z,20.10
2018-08-22T23:01:19.029Z,20.10
2018-08-22T23:04:38.886Z,20.10
2018-08-22T23:07:49.420Z,20.10
2018-08-22T23:10:59.268Z,20.10
2018-08-22T23:14:09.279Z,19.90
2018-08-22T23:17:19.360Z,19.90
2018-08-22T23:20:32.350Z,19.90
2018-08-22T23:23:42.213Z,19.80
2018-08-22T23:26:52.145Z,19.70
2018-08-22T23:30:02.066Z,19.60
2018-08-22T23:33:12.863Z,19.60
2018-08-22T23:36:22.746Z,19.60
2018-08-22T23:39:32.773Z,19.60
2018-08-22T23:42:42.697Z,19.70
2018-08-22T23:45:56.127Z,19.60
2018-08-22T23:49:06.747Z,19.50
2018-08-22T23:52:16.934Z,19.50
2018-08-22T23:55:27.526Z,19.50
2018-08-22T23:58:37.532Z,19.60
